Details From LOWI - Innsbruck Kranebitten
To LOWK - Klagenfurt Woerthersee
Flight Number -
Tags Real Generated
Created
Modified
Stats Distance 128 nm / 237 km
Max Altitude 0 ft / 0 m
Waypoints 2
Social Downloads 8
Likes 0
Share VATSIM

Download

Looking for another format? Having issues loading an existing format? Contact us
Advertisement - Login to hide

Notes

Generated

Route

LOWI LOWK

ID Type Via Altitude Latitude Longitude Leg Dist Tot Dist Heading (true) Name
O LOWI APT - 0 ft / 0 m 47.25883˚ 11.33091˚ - 0 nm - -
O LOWK APT - 0 ft / 0 m 46.64412˚ 14.32017˚ 127 nm 127 nm 106° / 108° -

Altitude Profile

Advertisement - Login to hide

LOWI

Details ICAO LOWI (INN)
Name Innsbruck Kranebitten
Region Austria
Timezone Europe/Vienna (UTC+2.0)
Stats Elevation 1,906 ft / 581 m (AMSL)
Location 47.260226° 11.343967°
Runways 1
Magnetic Variation 3.070° E

METAR

LOWI 211120Z VRB03KT 9999 FEW065 FEW065TCU 24/08 Q1013 BECMG FEW060CB

Decode

TAF

TAF LOWI 210515Z 2106/2206 27005KT 9999 FEW050 TX25/2114Z TN11/2204Z BECMG 2108/2110 12010G20KT PROB30 2113/2118 VRB15G25KT TSRA FEW050CB BKN070 BECMG 2118/2120 27005KT

Decode

Departure Runways

ID Width Length Bearing (true) Bearing (mag) Surface Threshold Offset Overrun Length
08 148 ft / 45 m 6,545 ft / 1,995 m 81.02° 77.95° Asphalt 338 ft / 103 m 0 ft / 0 m
26 148 ft / 45 m 6,545 ft / 1,995 m 261.04° 257.97° Asphalt 0 ft / 0 m 0 ft / 0 m

LOWK

Details ICAO LOWK (KLU)
Name Klagenfurt Woerthersee
Region Austria
Timezone Europe/Vienna (UTC+2.0)
Stats Elevation 1,470 ft / 448 m (AMSL)
Location 46.642851° 14.331169°
Runways 2
Magnetic Variation 3.710° E

METAR

LOWK 211120Z VRB04KT 9999 FEW030 SCT070 BKN100 21/12 Q1017 NOSIG

Decode

TAF

TAF LOWK 210515Z 2106/2206 VRB02KT 9999 FEW050 SCT100 TX20/2114Z TN11/2204Z TEMPO 2112/2119 12007KT SHRA SCT050 FEW050CB PROB30 TEMPO 2113/2119 VRB10G20KT 7000 TSRA SCT050 SCT050CB BKN100 TEMPO 2202/2206 1200 BCFG SCT004

Decode

Destination Runways

ID Width Length Bearing (true) Bearing (mag) Surface Threshold Offset Overrun Length
10L 148 ft / 45 m 8,903 ft / 2,714 m 106.32° 102.61° Concrete 656 ft / 200 m 0 ft / 0 m
10R 89 ft / 27 m 2,329 ft / 710 m 106.42° 102.71° Grass 197 ft / 60 m 0 ft / 0 m
28L 89 ft / 27 m 2,329 ft / 710 m 286.43° 282.72° Grass 197 ft / 60 m 0 ft / 0 m
28R 148 ft / 45 m 8,903 ft / 2,714 m 286.34° 282.63° Concrete 0 ft / 0 m 0 ft / 0 m

Approach Navaids

Runway Type Ident Frequency Range Bearing (true) Bearing (mag) Slope Elevation
28R Localiser OEK 110.10 MHz 18 nm / 33 km 286.32° 282.61° - 1,470 ft / 448 m (AMSL)
28R Glidescope OEK 110.10 MHz 10 nm / 19 km 286.33° 282.62° 3.00° 1,479 ft / 451 m (AMSL)
28R DME OEK 110.10 MHz 18 nm / 33 km - - - 1,479 ft / 451 m (AMSL)

Popular Alternatives